createdAt,value
2023-03-29T00:00:00.216Z,5.7
2023-03-29T00:05:01.129Z,5.6
2023-03-29T00:10:00.201Z,5.6
2023-03-29T00:15:01.164Z,5.6
2023-03-29T00:20:01.141Z,5.6
2023-03-29T00:25:01.165Z,5.6
2023-03-29T00:30:01.138Z,5.5
2023-03-29T00:35:01.114Z,5.5
2023-03-29T00:40:01.164Z,5.6
2023-03-29T00:45:01.186Z,5.6
2023-03-29T00:50:01.168Z,5.6
2023-03-29T00:55:01.159Z,5.6
2023-03-29T01:00:01.165Z,5.6
2023-03-29T01:05:01.157Z,5.5
2023-03-29T01:10:01.119Z,5.5
2023-03-29T01:15:01.157Z,5.4
2023-03-29T01:20:01.151Z,5.4
2023-03-29T01:25:01.171Z,5.4
2023-03-29T01:30:01.150Z,5.4
2023-03-29T01:35:01.181Z,5.4
2023-03-29T01:40:01.157Z,5.5
2023-03-29T01:45:01.112Z,5.5
2023-03-29T01:50:00.300Z,5.5
2023-03-29T01:55:01.136Z,5.5
2023-03-29T02:00:01.158Z,5.5
2023-03-29T02:05:01.152Z,5.5
2023-03-29T02:10:01.137Z,5.5
2023-03-29T02:15:01.230Z,5.5
2023-03-29T02:20:01.122Z,5.5
2023-03-29T02:25:01.162Z,5.5
2023-03-29T02:30:01.126Z,5.5
2023-03-29T02:35:01.183Z,5.5
2023-03-29T02:40:00.177Z,5.5
2023-03-29T02:45:01.140Z,5.6
2023-03-29T02:50:00.302Z,5.6
2023-03-29T02:55:01.103Z,5.6
2023-03-29T03:00:01.181Z,5.6
2023-03-29T03:05:01.140Z,5.6
2023-03-29T03:10:00.231Z,5.6
2023-03-29T03:15:01.157Z,5.6
2023-03-29T03:20:01.156Z,5.7
2023-03-29T03:25:01.227Z,5.7
2023-03-29T03:30:01.152Z,5.7
2023-03-29T03:35:01.121Z,5.7
2023-03-29T03:40:00.219Z,5.8
2023-03-29T03:45:01.140Z,5.8
2023-03-29T03:50:00.229Z,5.8
2023-03-29T03:55:01.181Z,5.8
2023-03-29T04:00:01.130Z,5.8
2023-03-29T04:05:01.136Z,5.9
2023-03-29T04:10:01.127Z,5.9
2023-03-29T04:15:01.096Z,5.9
2023-03-29T04:20:01.116Z,5.9
2023-03-29T04:25:01.136Z,5.9
2023-03-29T04:30:00.266Z,6
2023-03-29T04:35:01.141Z,6
2023-03-29T04:40:00.230Z,6
2023-03-29T04:45:01.279Z,6.1
2023-03-29T04:50:01.162Z,6.1
2023-03-29T04:55:01.227Z,6.1
2023-03-29T05:00:00.377Z,6.2
2023-03-29T05:05:01.220Z,6.2
2023-03-29T05:10:01.135Z,6.2
2023-03-29T05:15:01.175Z,6.2
2023-03-29T05:20:01.205Z,6.2
2023-03-29T05:25:01.209Z,6.3
2023-03-29T05:30:01.173Z,6.3
2023-03-29T05:35:01.214Z,6.3
2023-03-29T05:40:06.170Z,6.3
2023-03-29T05:45:01.206Z,6.3
2023-03-29T05:50:01.166Z,6.4
2023-03-29T05:55:01.157Z,6.4
2023-03-29T06:00:01.159Z,6.4
2023-03-29T06:05:01.194Z,6.4
2023-03-29T06:10:00.272Z,6.4
2023-03-29T06:15:01.198Z,6.5
2023-03-29T06:20:00.236Z,6.5
2023-03-29T06:25:01.179Z,6.5
2023-03-29T06:30:01.177Z,6.5
2023-03-29T06:35:01.214Z,6.6
2023-03-29T06:40:01.122Z,6.6
2023-03-29T06:45:01.118Z,6.6
2023-03-29T06:50:01.149Z,6.7
2023-03-29T06:55:01.152Z,6.7
2023-03-29T07:00:01.166Z,6.7
2023-03-29T07:05:01.177Z,6.8
2023-03-29T07:10:01.125Z,6.9
2023-03-29T07:15:01.120Z,6.9
2023-03-29T07:20:01.128Z,7.1
2023-03-29T07:25:01.157Z,7.1
2023-03-29T07:30:00.267Z,7.2
2023-03-29T07:35:01.158Z,7.3
2023-03-29T07:40:01.260Z,7.3
2023-03-29T07:45:01.156Z,7.5
2023-03-29T07:50:00.294Z,7.6
2023-03-29T07:55:01.125Z,7.6
2023-03-29T08:00:00.290Z,7.7
2023-03-29T08:05:01.203Z,7.8
2023-03-29T08:10:01.137Z,7.9
2023-03-29T08:15:05.282Z,8
2023-03-29T08:20:01.117Z,8
2023-03-29T08:25:01.145Z,8.2
2023-03-29T08:30:01.179Z,8.2
2023-03-29T08:35:05.288Z,8.3
2023-03-29T08:40:00.260Z,8.4
2023-03-29T08:45:05.356Z,8.4
2023-03-29T08:50:01.113Z,8.5
2023-03-29T08:55:01.137Z,8.7
2023-03-29T09:00:01.177Z,8.8
2023-03-29T09:05:01.111Z,8.9
2023-03-29T09:10:01.110Z,9
2023-03-29T09:15:01.133Z,9.1
2023-03-29T09:20:01.180Z,9.1
2023-03-29T09:25:01.150Z,9.2
2023-03-29T09:30:01.182Z,9.3
2023-03-29T09:35:01.175Z,9.3
2023-03-29T09:40:03.138Z,9.4
2023-03-29T09:45:01.176Z,9.4
2023-03-29T09:50:01.172Z,9.4
2023-03-29T09:55:01.155Z,9.4
2023-03-29T10:00:01.184Z,9.4
2023-03-29T10:05:01.294Z,9.4
2023-03-29T10:10:01.188Z,9.4
2023-03-29T10:15:01.239Z,9.5
2023-03-29T10:20:03.749Z,9.6
2023-03-29T10:25:01.162Z,9.7
2023-03-29T10:30:01.183Z,9.8
2023-03-29T10:35:01.216Z,9.9
2023-03-29T10:40:01.133Z,10
2023-03-29T10:45:01.141Z,10.2
2023-03-29T10:50:01.160Z,10.2
2023-03-29T10:55:01.165Z,10.3
2023-03-29T11:00:01.177Z,10.4
2023-03-29T11:05:01.135Z,10.5
2023-03-29T11:10:01.139Z,10.6
2023-03-29T11:15:01.216Z,10.6
2023-03-29T11:20:01.340Z,10.7
2023-03-29T11:25:01.195Z,10.7
2023-03-29T11:30:01.211Z,10.8
2023-03-29T11:35:05.215Z,10.8
2023-03-29T11:40:01.149Z,10.9
2023-03-29T11:45:01.183Z,10.9
2023-03-29T11:50:01.157Z,11
2023-03-29T11:55:01.157Z,11
2023-03-29T12:00:01.174Z,11.2
2023-03-29T12:05:01.149Z,11.4
2023-03-29T12:10:01.176Z,11.5
2023-03-29T12:15:01.187Z,11.7
2023-03-29T12:20:01.141Z,11.8
2023-03-29T12:25:01.126Z,11.9
2023-03-29T12:30:01.161Z,12
2023-03-29T12:35:01.195Z,12.1
2023-03-29T12:40:01.192Z,12.2
2023-03-29T12:45:01.153Z,12.4
2023-03-29T12:50:01.138Z,12.6
2023-03-29T12:55:01.198Z,12.7
2023-03-29T13:00:01.201Z,12.8
2023-03-29T13:05:01.271Z,12.9
2023-03-29T13:10:01.159Z,13
2023-03-29T13:15:01.174Z,13.1
2023-03-29T13:20:01.159Z,13.2
2023-03-29T13:25:01.157Z,13.3
2023-03-29T13:30:01.180Z,13.4
2023-03-29T13:35:01.132Z,13.4
2023-03-29T13:40:01.189Z,13.4
2023-03-29T13:45:01.140Z,13.4
2023-03-29T13:50:01.218Z,13.3
2023-03-29T13:55:01.150Z,13.3
2023-03-29T14:00:01.149Z,13.4
2023-03-29T14:05:01.153Z,13.5
2023-03-29T14:10:01.254Z,13.6
2023-03-29T14:15:01.118Z,13.7
2023-03-29T14:20:01.161Z,13.8
2023-03-29T14:25:01.155Z,13.8
2023-03-29T14:30:01.159Z,13.8
2023-03-29T14:35:01.156Z,13.8
2023-03-29T14:40:01.169Z,13.8
2023-03-29T14:45:01.183Z,13.9
2023-03-29T14:50:00.225Z,14
2023-03-29T14:55:05.269Z,14
2023-03-29T15:00:06.192Z,14.1
2023-03-29T15:05:01.198Z,14.1
2023-03-29T15:10:01.224Z,14.2
2023-03-29T15:15:01.169Z,14.2
2023-03-29T15:20:01.203Z,14.3
2023-03-29T15:25:01.163Z,14.3
2023-03-29T15:30:01.205Z,14.3
2023-03-29T15:35:01.151Z,14.4
2023-03-29T15:40:01.161Z,14.4
2023-03-29T15:45:01.177Z,14.4
2023-03-29T15:50:01.146Z,14.4
2023-03-29T15:55:01.110Z,14.4
2023-03-29T16:00:00.277Z,14.4
2023-03-29T16:05:01.125Z,14.4
2023-03-29T16:10:01.123Z,14.4
2023-03-29T16:15:01.127Z,14.4
2023-03-29T16:20:01.178Z,14.3
2023-03-29T16:25:01.197Z,14.3
2023-03-29T16:30:01.166Z,14.3
2023-03-29T16:35:01.435Z,14.3
2023-03-29T16:40:01.170Z,14.2
2023-03-29T16:45:01.193Z,14.2
2023-03-29T16:50:01.179Z,14.2
2023-03-29T16:55:01.185Z,14.2
2023-03-29T17:00:01.193Z,14.1
2023-03-29T17:05:01.196Z,14.1
2023-03-29T17:10:01.141Z,14.1
2023-03-29T17:15:01.186Z,14.1
2023-03-29T17:20:01.151Z,14
2023-03-29T17:25:01.139Z,14
2023-03-29T17:30:01.189Z,14
2023-03-29T17:35:01.168Z,14
2023-03-29T17:40:01.181Z,14
2023-03-29T17:45:01.172Z,14
2023-03-29T17:50:01.146Z,14
2023-03-29T17:55:01.185Z,14
2023-03-29T18:00:01.148Z,14
2023-03-29T18:05:01.113Z,14
2023-03-29T18:10:01.191Z,14
2023-03-29T18:15:01.170Z,14
2023-03-29T18:20:01.179Z,14
2023-03-29T18:25:01.245Z,14
2023-03-29T18:30:01.200Z,14
2023-03-29T18:35:01.254Z,14
2023-03-29T18:40:01.218Z,14
2023-03-29T18:45:01.178Z,14
2023-03-29T18:50:01.200Z,14
2023-03-29T18:55:01.171Z,14
2023-03-29T19:00:01.171Z,13.9
2023-03-29T19:05:01.205Z,13.9
2023-03-29T19:10:01.143Z,13.9
2023-03-29T19:15:01.134Z,13.8
2023-03-29T19:20:06.141Z,13.8
2023-03-29T19:25:01.167Z,13.8
2023-03-29T19:30:01.155Z,13.8
2023-03-29T19:35:01.199Z,13.8
2023-03-29T19:40:01.173Z,13.8
2023-03-29T19:45:01.200Z,13.8
2023-03-29T19:50:01.201Z,13.8
2023-03-29T19:55:01.209Z,13.8
2023-03-29T20:00:01.149Z,13.7
2023-03-29T20:05:01.189Z,13.7
2023-03-29T20:10:01.182Z,13.7
2023-03-29T20:15:01.149Z,13.7
2023-03-29T20:20:01.153Z,13.6
2023-03-29T20:25:01.187Z,13.6
2023-03-29T20:30:01.143Z,13.6
2023-03-29T20:35:01.181Z,13.6
2023-03-29T20:40:01.189Z,13.6
2023-03-29T20:45:01.178Z,13.6
2023-03-29T20:50:01.188Z,13.6
2023-03-29T20:55:01.156Z,13.6
2023-03-29T21:00:01.156Z,13.6
2023-03-29T21:05:01.155Z,13.6
2023-03-29T21:10:01.150Z,13.6
2023-03-29T21:15:01.106Z,13.6
2023-03-29T21:20:01.104Z,13.6
2023-03-29T21:25:01.156Z,13.5
2023-03-29T21:30:01.151Z,13.5
2023-03-29T21:35:01.102Z,13.5
2023-03-29T21:40:01.224Z,13.5
2023-03-29T21:45:01.193Z,13.4
2023-03-29T21:50:01.196Z,13.4
2023-03-29T21:55:01.153Z,13.4
2023-03-29T22:00:05.138Z,13.4
2023-03-29T22:05:01.133Z,13.4
2023-03-29T22:10:01.145Z,13.4
2023-03-29T22:15:01.173Z,13.3
2023-03-29T22:20:01.146Z,13.3
2023-03-29T22:25:01.152Z,13.2
2023-03-29T22:30:01.159Z,13.2
2023-03-29T22:35:01.149Z,13.1
2023-03-29T22:40:01.128Z,13
2023-03-29T22:45:01.114Z,13
2023-03-29T22:50:01.220Z,13
2023-03-29T22:55:01.204Z,12.9
2023-03-29T23:00:01.193Z,12.9
2023-03-29T23:05:01.116Z,12.9
2023-03-29T23:10:01.186Z,12.8
2023-03-29T23:15:01.181Z,12.8
2023-03-29T23:20:01.141Z,12.8
2023-03-29T23:25:01.136Z,12.8
2023-03-29T23:30:01.189Z,12.8
2023-03-29T23:35:01.110Z,12.8
2023-03-29T23:40:01.135Z,12.7
2023-03-29T23:45:01.167Z,12.8
2023-03-29T23:50:01.138Z,12.8
2023-03-29T23:55:01.196Z,12.8
